Kellyton, Alabama
Current Conditions -  °F | °C
As of 10:55 AM on Friday 28 Nov 2014 (Local Time) from KALX Reporting Station
Clear Clear  
Wind Chill: 44°   Ceiling: Unl
Heat Index: 47°   Visibility: 10mi
Dew Point: 18°   Wind: 5mph
Humidity: 32%   Direction: 340°NNW
Pressure: 30.4"   Gusts: NA
Location:  32.98°N, 86.03°W
Report Text: KALX 281655Z AUTO 34004KT 10SM CLR 08/M08 A3040 RMK AO2 T00811079
Loading
Personal Weather Stations






























Interactive Weather Map New forecast layout! Learn more

10-Day Weather Forecast

Advertisements
Track Severe Weather on mobile